Terminal Aerodrome Forecast
Issued by NWS

Home | Current Version | Previous Version | Text Only | Print | Product List | Glossary On
Versions: 1 2 3 4 5 6 7 8 9 10 11 12
000
FTUS46 KPDT 170522
TAFBDN
TAF
KBDN 170522Z 1706/1806 20006KT P6SM SKC
     FM171500 22010KT P6SM BKN200
     FM171900 23017G27KT P6SM BKN070
     FM180100 30010KT P6SM BKN070=

USA.gov is the U.S. government's official web portal to all federal, state and local government web resources and services.